This is the latest recevied weather packets stored in our database for station/object K4CRS-13. If no packets are shown the sender has not sent any weather packets the latest 1 day(s).
| Time | Temp. | Humidity | Pressure | Rain* | Wind** | Luminosity | Snow |
|---|---|---|---|---|---|---|---|
| 1778115505 | 15° C | 99% | 1046.8 hPa | 0 mm | - | 0 W/m² | - |
| 1778114898 | 15° C | 99% | 1047.4 hPa | 0 mm | - | 0 W/m² | - |
| 1778113683 | 15° C | 99% | 1047.4 hPa | 0 mm | - | 3 W/m² | - |
| 1778113380 | 15° C | 99% | 1047.5 hPa | 0 mm | - | 5 W/m² | - |
| 1778113077 | 15° C | 99% | 1047.8 hPa | 0 mm | - | 4 W/m² | - |
| 1778111863 | 15° C | 99% | 1047.2 hPa | 0 mm | - | 18 W/m² | - |
| 1778111256 | 15° C | 99% | 1047.6 hPa | 0 mm | - | 17 W/m² | - |
| 1778108830 | 14.44° C | 98% | 1047.5 hPa | 0 mm | - | 37 W/m² | - |
| 1778108224 | 14.44° C | 98% | 1047.5 hPa | 0 mm | - | 30 W/m² | - |
| 1778107921 | 15° C | 98% | 1047.4 hPa | 1.27 mm | - | 35 W/m² | - |
| 1778107617 | 15° C | 98% | 1048.1 hPa | 1.27 mm | - | 36 W/m² | - |
| 1778104887 | 16.67° C | 97% | 1046.9 hPa | 0 mm | - | 39 W/m² | - |
| 1778104584 | 16.67° C | 97% | 1046.9 hPa | 0 mm | - | 91 W/m² | - |
| 1778103674 | 17.22° C | 97% | 1046.7 hPa | 0 mm | - | 117 W/m² | - |
| 1778103372 | 17.78° C | 97% | 1046.9 hPa | 1.78 mm | - | 86 W/m² | - |
| 1778101854 | 20.56° C | 96% | 1046.4 hPa | 0 mm | - | 35 W/m² | - |
| 1778099126 | 21.11° C | 95% | 1046.5 hPa | 0 mm | - | 47 W/m² | - |
| 1778098520 | 21.11° C | 95% | 1046.3 hPa | 0 mm | - | 85 W/m² | - |
| 1778096700 | 21.11° C | 98% | 1046.7 hPa | 0 mm | - | 242 W/m² | - |
| 1778095790 | 21.11° C | 98% | 1046.9 hPa | 0 mm | - | 285 W/m² | - |
| 1778094577 | 20.56° C | 99% | 1046.8 hPa | 3.05 mm | - | 781 W/m² | - |
| 1778094274 | 20° C | 99% | 1046.8 hPa | 4.83 mm | - | 240 W/m² | - |
| 1778093971 | 20° C | 99% | 1046.8 hPa | 6.6 mm | - | 101 W/m² | - |
| 1778093365 | 20° C | 99% | 1047.1 hPa | 3.05 mm | - | 134 W/m² | - |
| 1778091849 | 22.22° C | 99% | 1046.7 hPa | 0 mm | - | 58 W/m² | - |
* Rain latest hour (hover to see other rain measurements)
** Current wind speed in m/s (hover to see current wind gust speed)